createdAt,value
2022-09-21T00:01:11.783Z,17.67
2022-09-21T00:03:41.470Z,17.87
2022-09-21T00:06:11.424Z,18.47
2022-09-21T00:08:39.419Z,18.37
2022-09-21T00:11:08.810Z,18.83
2022-09-21T00:13:37.868Z,20.13
2022-09-21T00:16:07.008Z,18.53
2022-09-21T00:18:36.807Z,16.57
2022-09-21T00:21:08.603Z,16.93
2022-09-21T00:23:37.391Z,16.60
2022-09-21T00:26:07.042Z,15.97
2022-09-21T00:28:35.184Z,15.83
2022-09-21T00:31:04.473Z,20.93
2022-09-21T00:33:32.755Z,16.53
2022-09-21T00:36:05.893Z,14.93
2022-09-21T00:38:34.194Z,17.70
2022-09-21T00:41:02.579Z,17.70
2022-09-21T00:43:30.543Z,14.70
2022-09-21T00:46:03.419Z,19.27
2022-09-21T00:48:32.324Z,15.40
2022-09-21T00:51:07.914Z,19.13
2022-09-21T00:53:36.528Z,15.43
2022-09-21T00:56:05.954Z,16.43
2022-09-21T00:58:38.687Z,16.20
2022-09-21T01:01:06.765Z,16.50
2022-09-21T01:03:35.027Z,13.23
2022-09-21T01:06:03.092Z,17.43
2022-09-21T01:08:34.383Z,19.33
2022-09-21T01:11:24.470Z,16.53
2022-09-21T01:14:12.517Z,17.57
2022-09-21T01:16:46.396Z,16.43
2022-09-21T01:19:32.565Z,19.23
2022-09-21T01:22:08.373Z,20.07
2022-09-21T01:24:58.523Z,18.70
2022-09-21T01:27:41.895Z,20.47
2022-09-21T01:30:15.516Z,17.33
2022-09-21T01:32:48.218Z,18.37
2022-09-21T01:35:20.700Z,19.10
2022-09-21T01:37:53.569Z,18.90
2022-09-21T01:40:26.303Z,15.77
2022-09-21T01:42:56.944Z,14.63
2022-09-21T01:45:31.735Z,17.93
2022-09-21T01:48:03.297Z,14.13
2022-09-21T01:50:35.597Z,13.73
2022-09-21T01:53:08.998Z,14.13
2022-09-21T01:55:44.187Z,14.40
2022-09-21T01:58:18.037Z,13.73
2022-09-21T02:00:50.061Z,13.30
2022-09-21T02:03:26.093Z,15.00
2022-09-21T02:05:54.941Z,14.20
2022-09-21T02:08:22.903Z,14.57
2022-09-21T02:10:53.282Z,15.17
2022-09-21T02:13:25.346Z,15.50
2022-09-21T02:16:06.698Z,17.70
2022-09-21T02:18:44.805Z,17.27
2022-09-21T02:21:20.844Z,13.90
2022-09-21T02:23:57.568Z,14.77
2022-09-21T02:26:31.705Z,17.57
2022-09-21T02:29:11.870Z,16.50
2022-09-21T02:31:47.828Z,19.20
2022-09-21T02:34:21.616Z,18.27
2022-09-21T02:36:57.077Z,14.87
2022-09-21T02:39:31.960Z,15.83
2022-09-21T02:42:07.666Z,17.00
2022-09-21T02:44:40.931Z,17.87
2022-09-21T02:47:15.796Z,16.70
2022-09-21T02:49:47.677Z,16.80
2022-09-21T02:52:18.264Z,20.03
2022-09-21T02:54:50.628Z,17.70
2022-09-21T02:57:21.344Z,17.03
2022-09-21T02:59:49.682Z,18.53
2022-09-21T03:02:18.998Z,16.13
2022-09-21T03:04:49.215Z,18.77
2022-09-21T03:07:18.052Z,20.00
2022-09-21T03:09:46.585Z,22.70
2022-09-21T03:12:14.545Z,20.20
2022-09-21T03:14:42.874Z,21.73
2022-09-21T03:17:10.841Z,19.07
2022-09-21T03:19:40.686Z,19.23
2022-09-21T03:22:08.640Z,18.00
2022-09-21T03:24:48.789Z,18.57
2022-09-21T03:27:18.527Z,22.53
2022-09-21T03:29:46.823Z,18.53
2022-09-21T03:32:15.376Z,20.90
2022-09-21T03:34:44.752Z,18.63
2022-09-21T03:37:13.209Z,20.23
2022-09-21T03:39:41.180Z,19.80
2022-09-21T03:42:10.034Z,18.90
2022-09-21T03:44:38.530Z,20.60
2022-09-21T03:47:07.553Z,19.40
2022-09-21T03:49:35.890Z,17.87
2022-09-21T03:52:05.781Z,19.80
2022-09-21T03:54:33.916Z,23.77
2022-09-21T03:57:01.881Z,22.33
2022-09-21T03:59:29.876Z,23.40
2022-09-21T04:01:57.819Z,26.30
2022-09-21T04:04:25.774Z,23.57
2022-09-21T04:06:53.746Z,27.70
2022-09-21T04:09:23.462Z,32.77
2022-09-21T04:11:52.928Z,30.13
2022-09-21T04:14:23.227Z,28.33
2022-09-21T04:16:52.090Z,25.33
2022-09-21T04:19:21.058Z,24.80
2022-09-21T04:21:51.340Z,23.60
2022-09-21T04:24:19.721Z,21.53
2022-09-21T04:26:49.311Z,22.10
2022-09-21T04:29:17.669Z,20.57
2022-09-21T04:31:45.611Z,20.27
2022-09-21T04:34:15.098Z,21.47
2022-09-21T04:36:43.647Z,22.30
2022-09-21T04:39:11.573Z,22.17
2022-09-21T04:41:39.546Z,22.13
2022-09-21T04:44:09.132Z,22.60
2022-09-21T04:46:37.100Z,26.97
2022-09-21T04:49:05.295Z,25.13
2022-09-21T04:51:33.271Z,24.57
2022-09-21T04:54:01.678Z,23.20
2022-09-21T04:56:29.615Z,22.10
2022-09-21T04:58:57.873Z,25.30
2022-09-21T05:01:27.851Z,24.47
2022-09-21T05:03:58.720Z,25.37
2022-09-21T05:06:26.752Z,30.53
2022-09-21T05:09:12.155Z,22.83
2022-09-21T05:11:40.152Z,27.77
2022-09-21T05:14:08.355Z,23.83
2022-09-21T05:16:38.008Z,24.20
2022-09-21T05:19:06.508Z,25.23
2022-09-21T05:21:36.378Z,26.27
2022-09-21T05:24:04.659Z,31.97
2022-09-21T05:26:32.599Z,38.17
2022-09-21T05:29:01.063Z,34.10
2022-09-21T05:31:38.043Z,29.27
2022-09-21T05:34:32.989Z,28.23
2022-09-21T05:37:10.057Z,28.37
2022-09-21T05:39:38.600Z,29.53
2022-09-21T05:42:07.482Z,32.43
2022-09-21T05:44:36.150Z,31.30
2022-09-21T05:47:16.070Z,32.87
2022-09-21T05:49:54.870Z,34.93
2022-09-21T05:52:31.271Z,34.90
2022-09-21T05:55:07.986Z,36.17
2022-09-21T05:57:46.385Z,33.63
2022-09-21T06:00:19.056Z,35.83
2022-09-21T06:03:06.634Z,31.10
2022-09-21T06:05:35.966Z,29.97
2022-09-21T06:08:03.940Z,29.27
2022-09-21T06:10:35.269Z,28.20
2022-09-21T06:13:03.399Z,26.30
2022-09-21T06:15:31.407Z,27.80
2022-09-21T06:17:59.823Z,32.00
2022-09-21T06:20:27.836Z,28.60
2022-09-21T06:23:02.721Z,28.07
2022-09-21T06:25:30.723Z,29.87
2022-09-21T06:28:04.447Z,28.30
2022-09-21T06:30:34.603Z,35.77
2022-09-21T06:33:03.682Z,32.13
2022-09-21T06:35:32.741Z,33.57
2022-09-21T06:38:02.755Z,38.27
2022-09-21T06:40:31.357Z,35.03
2022-09-21T06:43:00.242Z,35.87
2022-09-21T06:45:28.745Z,30.27
2022-09-21T06:47:56.788Z,32.10
2022-09-21T06:50:25.251Z,32.10
2022-09-21T06:52:53.352Z,35.57
2022-09-21T06:55:22.775Z,35.10
2022-09-21T06:57:51.775Z,33.40
2022-09-21T07:00:19.998Z,35.60
2022-09-21T07:02:48.248Z,33.17
2022-09-21T07:05:16.865Z,29.23
2022-09-21T07:07:44.780Z,28.87
2022-09-21T07:10:17.135Z,28.87
2022-09-21T07:12:49.547Z,26.23
2022-09-21T07:15:17.578Z,29.70
2022-09-21T07:17:51.759Z,27.50
2022-09-21T07:20:20.172Z,26.33
2022-09-21T07:22:48.134Z,27.37
2022-09-21T07:25:16.214Z,28.60
2022-09-21T07:27:44.224Z,22.47
2022-09-21T07:30:14.040Z,23.80
2022-09-21T07:32:42.475Z,25.27
2022-09-21T07:35:10.549Z,21.97
2022-09-21T07:37:38.506Z,21.67
2022-09-21T07:40:07.225Z,27.70
2022-09-21T07:42:35.233Z,25.33
2022-09-21T07:45:04.179Z,27.97
2022-09-21T07:47:33.805Z,18.70
2022-09-21T07:50:01.800Z,20.57
2022-09-21T07:52:29.761Z,21.73
2022-09-21T07:54:57.690Z,20.10
2022-09-21T07:57:43.284Z,19.50
2022-09-21T08:00:12.330Z,19.93
2022-09-21T08:02:46.633Z,22.43
2022-09-21T08:05:15.931Z,19.10
2022-09-21T08:07:44.254Z,17.40
2022-09-21T08:10:12.605Z,16.53
2022-09-21T08:12:40.736Z,13.67
2022-09-21T08:15:25.043Z,15.30
2022-09-21T08:17:59.123Z,14.53
2022-09-21T08:20:27.163Z,14.90
2022-09-21T08:22:56.901Z,14.17
2022-09-21T08:25:24.945Z,13.63
2022-09-21T08:27:52.871Z,13.17
2022-09-21T08:30:21.447Z,13.00
2022-09-21T08:32:51.729Z,18.37
2022-09-21T08:35:21.413Z,14.83
2022-09-21T08:37:51.102Z,16.17
2022-09-21T08:40:20.395Z,16.93
2022-09-21T08:42:58.322Z,16.83
2022-09-21T08:45:34.789Z,17.33
2022-09-21T08:48:06.820Z,18.03
2022-09-21T08:50:41.757Z,24.00
2022-09-21T08:53:15.461Z,19.37
2022-09-21T08:55:43.741Z,18.90
2022-09-21T08:58:22.764Z,17.67
2022-09-21T09:00:57.321Z,14.57
2022-09-21T09:03:47.337Z,18.85
2022-09-21T09:06:26.883Z,17.03
2022-09-21T09:09:28.014Z,18.73
2022-09-21T09:12:19.394Z,14.50
2022-09-21T09:15:02.118Z,13.97
2022-09-21T09:17:43.289Z,13.13
2022-09-21T09:20:16.878Z,14.03
2022-09-21T09:22:49.036Z,15.07
2022-09-21T09:25:21.789Z,15.30
2022-09-21T09:27:53.799Z,16.40
2022-09-21T09:30:25.573Z,15.20
2022-09-21T09:32:59.419Z,17.40
2022-09-21T09:35:30.287Z,14.87
2022-09-21T09:38:06.173Z,12.67
2022-09-21T09:40:57.610Z,14.67
2022-09-21T09:43:41.070Z,14.80
2022-09-21T09:46:18.297Z,17.03
2022-09-21T09:49:06.136Z,15.93
2022-09-21T09:51:39.874Z,19.53
2022-09-21T09:54:15.014Z,15.67
2022-09-21T09:56:43.018Z,16.80
2022-09-21T09:59:18.038Z,14.93
2022-09-21T10:01:47.660Z,14.07
2022-09-21T10:04:17.555Z,13.03
2022-09-21T10:06:46.918Z,14.50
2022-09-21T10:09:26.514Z,14.30
2022-09-21T10:11:57.116Z,13.10
2022-09-21T10:14:28.020Z,17.33
2022-09-21T10:16:57.386Z,15.23
2022-09-21T10:19:27.331Z,16.98
2022-09-21T10:21:58.831Z,10.55
2022-09-21T10:24:30.300Z,14.50
2022-09-21T10:27:06.342Z,9.60
2022-09-21T10:29:41.869Z,10.90
2022-09-21T10:32:26.070Z,8.53
2022-09-21T10:35:19.086Z,10.60
2022-09-21T10:37:49.312Z,8.35
2022-09-21T10:40:27.624Z,10.18
2022-09-21T10:42:58.650Z,8.23
2022-09-21T10:45:28.244Z,9.57
2022-09-21T10:47:58.773Z,9.50
2022-09-21T10:50:35.958Z,8.38
2022-09-21T10:53:13.976Z,8.13
2022-09-21T10:55:58.430Z,9.43
2022-09-21T10:58:35.603Z,8.77
2022-09-21T11:01:12.579Z,12.05
2022-09-21T11:03:49.091Z,13.63
2022-09-21T11:06:24.285Z,11.03
2022-09-21T11:08:57.066Z,9.38
2022-09-21T11:11:40.800Z,7.40
2022-09-21T11:14:20.189Z,9.03
2022-09-21T11:16:55.436Z,7.73
2022-09-21T11:19:31.224Z,8.07
2022-09-21T11:22:06.980Z,6.33
2022-09-21T11:24:44.248Z,7.47
2022-09-21T11:27:18.871Z,6.78
2022-09-21T11:29:56.397Z,7.63
2022-09-21T11:32:35.256Z,8.55
2022-09-21T11:35:33.315Z,9.20
2022-09-21T11:38:08.629Z,9.15
2022-09-21T11:41:16.555Z,11.00
2022-09-21T11:44:09.444Z,8.50
2022-09-21T11:46:43.800Z,6.80
2022-09-21T11:49:37.955Z,11.20
2022-09-21T11:52:26.814Z,9.45
2022-09-21T11:55:11.517Z,8.82
2022-09-21T11:57:45.454Z,8.98
2022-09-21T12:00:17.939Z,9.98
2022-09-21T12:03:27.166Z,8.35
2022-09-21T12:06:25.014Z,7.45
2022-09-21T12:09:17.895Z,8.45
2022-09-21T12:11:56.877Z,7.18
2022-09-21T12:14:33.768Z,7.75
2022-09-21T12:17:09.158Z,10.48
2022-09-21T12:19:46.216Z,7.88
2022-09-21T12:22:19.440Z,8.93
2022-09-21T12:24:50.948Z,9.38
2022-09-21T12:27:26.719Z,13.93
2022-09-21T12:30:00.388Z,11.77
2022-09-21T12:32:51.469Z,9.32
2022-09-21T12:35:27.103Z,8.32
2022-09-21T12:38:00.404Z,8.90
2022-09-21T12:40:36.426Z,8.35
2022-09-21T12:43:14.657Z,9.80
2022-09-21T12:45:47.140Z,7.85
2022-09-21T12:48:32.483Z,6.68
2022-09-21T12:51:07.301Z,11.10
2022-09-21T12:53:38.877Z,11.75
2022-09-21T12:56:11.143Z,9.52
2022-09-21T12:58:50.770Z,9.30
2022-09-21T13:01:29.571Z,13.13
2022-09-21T13:04:34.501Z,8.73
2022-09-21T13:07:39.915Z,7.65
2022-09-21T13:10:18.748Z,9.55
2022-09-21T13:12:49.038Z,9.30
2022-09-21T13:15:23.674Z,9.95
2022-09-21T13:18:00.531Z,8.25
2022-09-21T13:20:34.031Z,11.73
2022-09-21T13:23:03.901Z,9.40
2022-09-21T13:25:37.505Z,6.72
2022-09-21T13:28:23.764Z,6.25
2022-09-21T13:31:40.768Z,8.15
2022-09-21T13:34:24.652Z,9.77
2022-09-21T13:37:16.837Z,7.40
2022-09-21T13:39:49.565Z,8.45
2022-09-21T13:42:48.188Z,10.50
2022-09-21T13:45:51.786Z,7.22
2022-09-21T13:48:29.243Z,8.27
2022-09-21T13:51:03.259Z,6.78
2022-09-21T13:53:40.013Z,11.98
2022-09-21T13:56:20.120Z,8.88
2022-09-21T13:58:52.125Z,7.82
2022-09-21T14:04:21.273Z,5.57
2022-09-21T14:06:53.346Z,9.10
2022-09-21T14:09:25.515Z,4.95
2022-09-21T14:12:00.141Z,7.47
2022-09-21T14:14:32.814Z,9.98
2022-09-21T14:17:01.825Z,8.37
2022-09-21T14:20:09.536Z,10.80
2022-09-21T14:22:40.369Z,12.93
2022-09-21T14:25:28.632Z,10.50
2022-09-21T14:28:05.792Z,10.60
2022-09-21T14:30:36.830Z,12.73
2022-09-21T14:33:16.046Z,10.73
2022-09-21T14:35:47.423Z,10.73
2022-09-21T14:38:21.472Z,12.85
2022-09-21T14:40:51.182Z,9.73
2022-09-21T14:43:25.831Z,8.77
2022-09-21T14:46:14.277Z,10.93
2022-09-21T14:48:54.511Z,13.27
2022-09-21T14:51:37.411Z,12.95
2022-09-21T14:54:23.479Z,9.90
2022-09-21T14:57:05.017Z,10.52
2022-09-21T14:59:52.819Z,13.10
2022-09-21T15:02:23.861Z,6.40
2022-09-21T15:05:13.357Z,8.45
2022-09-21T15:08:06.070Z,6.35
2022-09-21T15:10:58.532Z,6.25
2022-09-21T15:14:04.912Z,7.32
2022-09-21T15:16:41.559Z,5.85
2022-09-21T15:19:16.265Z,6.78
2022-09-21T15:21:46.304Z,7.43
2022-09-21T15:24:22.781Z,6.15
2022-09-21T15:26:52.346Z,9.23
2022-09-21T15:29:26.006Z,10.45
2022-09-21T15:31:56.018Z,9.32
2022-09-21T15:34:24.995Z,10.45
2022-09-21T15:36:53.687Z,10.30
2022-09-21T15:39:27.752Z,9.98
2022-09-21T15:42:22.739Z,10.63
2022-09-21T15:44:55.211Z,9.17
2022-09-21T15:47:29.071Z,12.48
2022-09-21T15:49:59.029Z,12.30
2022-09-21T15:52:33.730Z,9.20
2022-09-21T15:55:08.971Z,9.03
2022-09-21T15:57:40.610Z,10.37
2022-09-21T16:00:20.409Z,10.93
2022-09-21T16:03:06.436Z,11.10
2022-09-21T16:05:47.070Z,14.43
2022-09-21T16:08:22.699Z,11.53
2022-09-21T16:10:51.333Z,13.50
2022-09-21T16:13:38.808Z,12.23
2022-09-21T16:16:08.672Z,14.80
2022-09-21T16:18:47.796Z,12.67
2022-09-21T16:21:22.489Z,14.97
2022-09-21T16:23:52.573Z,19.00
2022-09-21T16:26:23.641Z,20.37
2022-09-21T16:28:59.280Z,20.67
2022-09-21T16:31:33.149Z,23.77
2022-09-21T16:34:08.003Z,26.80
2022-09-21T16:36:42.319Z,25.97
2022-09-21T16:39:15.494Z,23.47
2022-09-21T16:41:47.379Z,27.07
2022-09-21T16:44:20.888Z,28.07
2022-09-21T16:46:52.571Z,29.50
2022-09-21T16:49:26.796Z,28.50
2022-09-21T16:51:57.367Z,25.23
2022-09-21T16:54:27.203Z,24.90
2022-09-21T16:56:57.390Z,34.43
2022-09-21T16:59:25.486Z,40.00
2022-09-21T17:01:56.639Z,52.67
2022-09-21T17:04:28.914Z,40.20
2022-09-21T17:06:57.851Z,42.60
2022-09-21T17:09:29.748Z,46.27
2022-09-21T17:12:00.237Z,56.53
2022-09-21T17:14:29.552Z,57.30
2022-09-21T17:17:00.124Z,61.47
2022-09-21T17:19:29.413Z,48.00
2022-09-21T17:21:57.370Z,41.93
2022-09-21T17:24:48.619Z,44.33
2022-09-21T17:27:14.655Z,49.23
2022-09-21T17:29:47.912Z,47.70
2022-09-21T17:32:17.923Z,39.03
2022-09-21T17:34:50.133Z,38.90
2022-09-21T17:37:18.193Z,39.57
2022-09-21T17:39:46.305Z,39.37
2022-09-21T17:42:18.862Z,38.90
2022-09-21T17:45:01.792Z,42.97
2022-09-21T17:47:33.344Z,36.93
2022-09-21T17:50:09.519Z,33.90
2022-09-21T17:52:55.547Z,34.63
2022-09-21T17:55:24.136Z,30.47
2022-09-21T17:58:04.052Z,29.90
2022-09-21T18:00:49.251Z,30.30
2022-09-21T18:03:22.975Z,30.23
2022-09-21T18:05:59.339Z,32.50
2022-09-21T18:08:28.020Z,32.00
2022-09-21T18:11:07.543Z,31.00
2022-09-21T18:13:46.318Z,28.17
2022-09-21T18:16:28.152Z,35.43
2022-09-21T18:19:17.319Z,33.20
2022-09-21T18:21:50.922Z,34.73
2022-09-21T18:24:30.789Z,38.67
2022-09-21T18:27:00.094Z,39.43
2022-09-21T18:29:40.731Z,44.70
2022-09-21T18:32:28.401Z,38.27
2022-09-21T18:35:19.342Z,41.37
2022-09-21T18:38:13.772Z,42.13
2022-09-21T18:40:50.144Z,35.17
2022-09-21T18:43:28.035Z,32.77
2022-09-21T18:46:01.905Z,37.43
2022-09-21T18:48:48.557Z,35.50
2022-09-21T18:51:24.978Z,36.43
2022-09-21T18:53:56.839Z,31.33
2022-09-21T18:56:26.652Z,31.27
2022-09-21T18:58:55.977Z,30.53
2022-09-21T19:01:25.270Z,30.90
2022-09-21T19:03:53.840Z,33.63
2022-09-21T19:06:32.650Z,36.83
2022-09-21T19:09:08.050Z,37.07
2022-09-21T19:11:44.520Z,35.47
2022-09-21T19:14:20.983Z,37.53
2022-09-21T19:17:03.862Z,41.70
2022-09-21T19:19:39.920Z,39.97
2022-09-21T19:22:15.638Z,42.17
2022-09-21T19:24:54.222Z,40.53
2022-09-21T19:27:29.298Z,34.10
2022-09-21T19:30:06.011Z,32.80
2022-09-21T19:32:39.656Z,34.23
2022-09-21T19:35:22.460Z,32.83
2022-09-21T19:37:51.970Z,38.10
2022-09-21T19:40:23.363Z,37.53
2022-09-21T19:43:12.261Z,37.30
2022-09-21T19:45:50.398Z,42.03
2022-09-21T19:48:22.097Z,47.77
2022-09-21T19:50:54.587Z,38.87
2022-09-21T19:53:41.278Z,36.63
2022-09-21T19:56:31.898Z,38.17
2022-09-21T19:59:17.710Z,36.40
2022-09-21T20:01:52.613Z,36.23
2022-09-21T20:04:27.451Z,31.40
2022-09-21T20:07:03.319Z,34.67
2022-09-21T20:09:38.161Z,32.73
2022-09-21T20:12:16.127Z,33.77
2022-09-21T20:14:47.904Z,34.20
2022-09-21T20:17:22.169Z,38.93
2022-09-21T20:19:55.919Z,34.17
2022-09-21T20:22:33.697Z,37.80
2022-09-21T20:25:06.973Z,36.73
2022-09-21T20:27:39.978Z,34.03
2022-09-21T20:30:10.743Z,38.33
2022-09-21T20:32:40.366Z,37.97
2022-09-21T20:35:16.958Z,35.10
2022-09-21T20:37:45.402Z,38.67
2022-09-21T20:40:14.317Z,36.90
2022-09-21T20:42:43.845Z,38.40
2022-09-21T20:45:13.478Z,32.60
2022-09-21T20:47:41.541Z,35.30
2022-09-21T20:50:11.991Z,35.07
2022-09-21T20:52:40.765Z,31.60
2022-09-21T20:55:10.180Z,33.00
2022-09-21T20:57:38.444Z,31.17
2022-09-21T21:00:09.969Z,32.57
2022-09-21T21:02:38.240Z,32.33
2022-09-21T21:05:07.934Z,33.93
2022-09-21T21:07:36.509Z,31.40
2022-09-21T21:10:04.917Z,38.67
2022-09-21T21:12:33.257Z,43.23
2022-09-21T21:15:01.192Z,44.67
2022-09-21T21:17:31.196Z,43.27
2022-09-21T21:19:59.135Z,39.17
2022-09-21T21:22:27.091Z,37.13
2022-09-21T21:24:55.124Z,40.60
2022-09-21T21:27:25.495Z,34.70
2022-09-21T21:29:54.890Z,37.27
2022-09-21T21:32:25.451Z,35.60
2022-09-21T21:34:55.965Z,31.37
2022-09-21T21:37:25.923Z,33.47
2022-09-21T21:39:54.261Z,34.83
2022-09-21T21:42:22.919Z,31.40
2022-09-21T21:44:51.431Z,30.67
2022-09-21T21:47:39.835Z,30.43
2022-09-21T21:50:10.541Z,30.43
2022-09-21T21:52:38.872Z,30.60
2022-09-21T21:55:07.881Z,34.10
2022-09-21T21:57:35.870Z,36.97
2022-09-21T22:00:05.500Z,39.03
2022-09-21T22:02:33.486Z,33.63
2022-09-21T22:05:01.509Z,29.77
2022-09-21T22:07:30.802Z,29.17
2022-09-21T22:09:58.806Z,32.80
2022-09-21T22:12:26.742Z,29.77
2022-09-21T22:14:54.744Z,32.13
2022-09-21T22:17:23.047Z,35.70
2022-09-21T22:19:51.459Z,33.67
2022-09-21T22:22:19.409Z,34.70
2022-09-21T22:24:48.810Z,30.53
2022-09-21T22:27:17.039Z,31.90
2022-09-21T22:29:44.982Z,30.07
2022-09-21T22:32:12.939Z,28.27
2022-09-21T22:34:40.916Z,25.17
2022-09-21T22:37:08.893Z,25.57
2022-09-21T22:39:36.874Z,28.27
2022-09-21T22:42:06.749Z,29.17
2022-09-21T22:44:34.843Z,30.60
2022-09-21T22:47:02.829Z,26.47
2022-09-21T22:49:30.772Z,28.07
2022-09-21T22:51:58.703Z,22.93
2022-09-21T22:54:27.799Z,25.97
2022-09-21T22:56:55.715Z,22.60
2022-09-21T22:59:25.081Z,24.20
2022-09-21T23:01:53.032Z,25.57
2022-09-21T23:04:21.245Z,24.67
2022-09-21T23:06:50.272Z,20.50
2022-09-21T23:09:19.922Z,24.53
2022-09-21T23:11:50.111Z,25.03
2022-09-21T23:14:18.246Z,28.20
2022-09-21T23:16:47.703Z,30.70
2022-09-21T23:19:18.606Z,31.10
2022-09-21T23:21:50.426Z,33.03
2022-09-21T23:24:19.337Z,28.00
2022-09-21T23:26:47.593Z,26.83
2022-09-21T23:29:16.644Z,28.40
2022-09-21T23:31:46.119Z,29.70
2022-09-21T23:34:16.907Z,29.53
2022-09-21T23:36:45.710Z,28.03
2022-09-21T23:39:15.346Z,26.70
2022-09-21T23:41:43.890Z,27.13
2022-09-21T23:44:11.849Z,31.57
2022-09-21T23:46:41.098Z,26.47
2022-09-21T23:49:09.276Z,31.27
2022-09-21T23:51:38.918Z,28.50
2022-09-21T23:54:07.154Z,29.57
2022-09-21T23:56:35.456Z,26.20
2022-09-21T23:59:03.476Z,27.83
